createdAt,value
2023-02-09T00:02:19.330Z,100103.63
2023-02-09T00:04:47.709Z,100101.78
2023-02-09T00:07:16.017Z,100101.59
2023-02-09T00:09:45.383Z,100099.44
2023-02-09T00:12:31.067Z,100094.34
2023-02-09T00:14:59.393Z,100088.91
2023-02-09T00:17:29.346Z,100081.22
2023-02-09T00:19:57.620Z,100080.19
2023-02-09T00:22:25.908Z,100076.56
2023-02-09T00:24:56.438Z,100077.25
2023-02-09T00:27:25.748Z,100071.16
2023-02-09T00:29:54.134Z,100067.41
2023-02-09T00:32:22.417Z,100075.00
2023-02-09T00:34:52.135Z,100079.09
2023-02-09T00:37:20.445Z,100071.91
2023-02-09T00:39:48.936Z,100074.63
2023-02-09T00:42:17.347Z,100069.06
2023-02-09T00:44:45.964Z,100069.09
2023-02-09T00:47:14.287Z,100070.06
2023-02-09T00:49:42.700Z,100072.22
2023-02-09T00:52:12.553Z,100064.56
2023-02-09T00:54:41.695Z,100063.88
2023-02-09T00:57:10.050Z,100063.44
2023-02-09T00:59:40.698Z,100060.28
2023-02-09T01:02:10.463Z,100066.59
2023-02-09T01:04:40.363Z,100064.53
2023-02-09T01:07:08.791Z,100060.31
2023-02-09T01:09:39.166Z,100071.56
2023-02-09T01:12:08.818Z,100078.59
2023-02-09T01:14:39.764Z,100065.19
2023-02-09T01:17:08.254Z,100060.66
2023-02-09T01:19:36.960Z,100057.88
2023-02-09T01:22:05.984Z,100065.84
2023-02-09T01:24:34.302Z,100065.94
2023-02-09T01:27:04.011Z,100063.81
2023-02-09T01:29:32.937Z,100048.00
2023-02-09T01:32:01.382Z,100048.91
2023-02-09T01:34:29.897Z,100059.44
2023-02-09T01:36:58.485Z,100051.38
2023-02-09T01:39:26.749Z,100046.91
2023-02-09T01:41:55.770Z,100037.50
2023-02-09T01:45:06.535Z,100046.94
2023-02-09T01:47:42.069Z,100050.09
2023-02-09T01:50:11.182Z,100038.66
2023-02-09T01:52:40.622Z,100046.19
2023-02-09T01:55:13.787Z,100041.97
2023-02-09T01:57:46.025Z,100044.59
2023-02-09T02:00:19.000Z,100040.34
2023-02-09T02:02:51.815Z,100044.38
2023-02-09T02:05:20.978Z,100022.22
2023-02-09T02:07:57.145Z,100044.31
2023-02-09T02:10:26.225Z,100050.69
2023-02-09T02:12:55.481Z,100015.66
2023-02-09T02:15:29.717Z,100043.50
2023-02-09T02:18:19.537Z,100037.75
2023-02-09T02:21:17.361Z,100030.28
2023-02-09T02:23:59.401Z,100028.56
2023-02-09T02:26:46.463Z,100035.78
2023-02-09T02:29:55.096Z,100041.38
2023-02-09T02:32:38.572Z,100036.72
2023-02-09T02:35:14.218Z,100025.97
2023-02-09T02:37:54.529Z,100011.31
2023-02-09T02:40:34.473Z,100023.00
2023-02-09T02:43:12.420Z,100027.69
2023-02-09T02:45:46.716Z,100026.88
2023-02-09T02:48:25.073Z,100019.25
2023-02-09T02:50:58.571Z,100011.16
2023-02-09T02:53:31.108Z,100021.50
2023-02-09T02:56:06.550Z,100016.25
2023-02-09T02:58:37.676Z,100012.63
2023-02-09T03:01:11.216Z,100020.16
2023-02-09T03:03:42.953Z,100011.78
2023-02-09T03:06:12.678Z,100017.63
2023-02-09T03:08:48.886Z,100020.41
2023-02-09T03:11:19.578Z,100006.50
2023-02-09T03:14:01.824Z,100004.38
2023-02-09T03:20:40.392Z,100014.34
2023-02-09T03:23:16.828Z,100005.97
2023-02-09T03:25:49.533Z,100010.91
2023-02-09T03:28:21.100Z,100017.47
2023-02-09T03:30:50.913Z,100014.75
2023-02-09T03:33:21.520Z,100010.94
2023-02-09T03:35:54.474Z,100009.72
2023-02-09T03:38:22.951Z,100007.63
2023-02-09T03:40:51.235Z,100007.94
2023-02-09T03:43:19.879Z,100006.91
2023-02-09T03:45:48.219Z,100008.16
2023-02-09T03:48:16.524Z,100002.59
2023-02-09T03:50:47.194Z,100003.06
2023-02-09T03:53:17.089Z,100006.06
2023-02-09T03:55:47.174Z,100006.06
2023-02-09T03:58:15.576Z,100014.88
2023-02-09T04:00:44.260Z,100016.22
2023-02-09T04:03:15.096Z,100011.44
2023-02-09T04:05:45.683Z,100019.69
2023-02-09T04:08:13.953Z,100011.38
2023-02-09T04:10:43.823Z,100005.13
2023-02-09T04:13:12.137Z,100004.28
2023-02-09T04:15:40.456Z,100015.81
2023-02-09T04:18:08.836Z,100014.34
2023-02-09T04:20:37.117Z,100014.41
2023-02-09T04:23:05.417Z,100015.06
2023-02-09T04:25:33.738Z,100024.81
2023-02-09T04:28:03.582Z,100016.25
2023-02-09T04:30:32.024Z,100019.94
2023-02-09T04:33:00.402Z,100014.19
2023-02-09T04:35:28.724Z,100012.09
2023-02-09T04:37:57.088Z,100013.59
2023-02-09T04:40:25.378Z,100002.50
2023-02-09T04:42:55.888Z,100016.09
2023-02-09T04:45:25.514Z,100012.88
2023-02-09T04:47:53.878Z,100009.94
2023-02-09T04:50:22.185Z,100003.63
2023-02-09T04:52:50.485Z,100011.44
2023-02-09T04:55:18.889Z,100002.81
2023-02-09T04:58:04.781Z,99988.56
2023-02-09T05:00:34.486Z,100004.00
2023-02-09T05:03:02.933Z,100006.38
2023-02-09T05:05:31.315Z,99998.09
2023-02-09T05:08:00.002Z,100011.38
2023-02-09T05:10:30.572Z,100012.41
2023-02-09T05:12:58.901Z,100001.59
2023-02-09T05:15:27.232Z,99992.94
2023-02-09T05:17:57.043Z,100001.00
2023-02-09T05:20:25.289Z,100008.31
2023-02-09T05:22:53.692Z,99997.38
2023-02-09T05:25:21.958Z,100001.69
2023-02-09T05:27:50.370Z,100005.28
2023-02-09T05:30:19.270Z,100007.13
2023-02-09T05:32:47.626Z,100008.56
2023-02-09T05:35:17.326Z,100023.94
2023-02-09T05:37:45.661Z,100019.41
2023-02-09T05:40:14.148Z,100017.59
2023-02-09T05:42:42.801Z,100017.13
2023-02-09T05:45:11.898Z,99994.44
2023-02-09T05:47:40.262Z,100022.38
2023-02-09T05:50:08.959Z,100024.69
2023-02-09T05:52:38.723Z,100015.56
2023-02-09T05:55:07.688Z,100020.63
2023-02-09T05:57:35.934Z,100021.72
2023-02-09T06:00:06.545Z,100024.75
2023-02-09T06:02:40.159Z,100010.84
2023-02-09T06:05:09.020Z,100038.34
2023-02-09T06:07:38.665Z,100038.78
2023-02-09T06:10:07.506Z,100028.16
2023-02-09T06:12:35.800Z,100041.81
2023-02-09T06:15:04.211Z,100045.00
2023-02-09T06:17:34.771Z,100044.00
2023-02-09T06:20:03.448Z,100043.25
2023-02-09T06:22:31.747Z,100044.50
2023-02-09T06:25:01.576Z,99938.34
2023-02-09T06:27:29.904Z,100027.59
2023-02-09T06:29:58.247Z,100051.34
2023-02-09T06:32:26.562Z,100049.69
2023-02-09T06:34:54.786Z,100054.88
2023-02-09T06:37:25.611Z,100061.69
2023-02-09T06:39:56.513Z,100057.91
2023-02-09T06:42:43.508Z,100070.50
2023-02-09T06:45:12.211Z,100056.44
2023-02-09T06:47:42.543Z,100066.28
2023-02-09T06:50:14.402Z,100059.59
2023-02-09T06:52:43.091Z,100063.75
2023-02-09T06:55:12.257Z,100058.75
2023-02-09T06:57:42.319Z,100063.91
2023-02-09T07:00:12.900Z,100073.06
2023-02-09T07:02:42.961Z,100064.91
2023-02-09T07:05:14.875Z,100064.69
2023-02-09T07:07:43.848Z,100069.13
2023-02-09T07:10:16.337Z,100079.00
2023-02-09T07:12:46.397Z,100071.56
2023-02-09T07:15:15.842Z,100078.72
2023-02-09T07:17:44.276Z,100079.06
2023-02-09T07:20:13.355Z,100083.69
2023-02-09T07:22:42.061Z,100080.66
2023-02-09T07:25:10.471Z,100076.56
2023-02-09T07:27:38.998Z,100090.78
2023-02-09T07:30:10.219Z,100088.75
2023-02-09T07:32:38.670Z,100086.88
2023-02-09T07:35:07.439Z,100085.00
2023-02-09T07:37:36.298Z,100096.22
2023-02-09T07:40:04.796Z,100091.06
2023-02-09T07:42:33.173Z,100082.47
2023-02-09T07:45:06.017Z,100096.03
2023-02-09T07:47:38.578Z,100094.13
2023-02-09T07:50:07.137Z,100087.66
2023-02-09T07:52:35.415Z,100096.78
2023-02-09T07:55:03.861Z,100092.81
2023-02-09T07:57:32.875Z,100099.97
2023-02-09T08:00:01.186Z,100098.75
2023-02-09T08:02:35.019Z,100093.56
2023-02-09T08:05:09.059Z,100097.38
2023-02-09T08:07:37.902Z,100098.09
2023-02-09T08:10:06.848Z,100096.81
2023-02-09T08:12:53.202Z,100102.84
2023-02-09T08:15:23.998Z,100113.56
2023-02-09T08:17:55.359Z,100110.63
2023-02-09T08:20:28.589Z,100116.25
2023-02-09T08:23:03.014Z,100113.25
2023-02-09T08:25:31.296Z,100099.28
2023-02-09T08:27:59.719Z,100111.13
2023-02-09T08:30:28.199Z,100112.34
2023-02-09T08:32:56.532Z,100112.34
2023-02-09T08:35:26.259Z,100113.31
2023-02-09T08:37:54.618Z,100082.66
2023-02-09T08:40:22.947Z,100111.38
2023-02-09T08:42:51.239Z,100105.22
2023-02-09T08:45:19.827Z,100109.16
2023-02-09T08:47:48.167Z,100100.63
2023-02-09T08:50:16.871Z,100101.75
2023-02-09T08:52:46.557Z,100101.53
2023-02-09T08:55:15.721Z,100094.09
2023-02-09T08:57:44.825Z,100099.19
2023-02-09T09:00:16.613Z,100110.16
2023-02-09T09:02:44.922Z,100108.78
2023-02-09T09:05:13.205Z,100112.06
2023-02-09T09:07:41.741Z,100097.13
2023-02-09T09:10:12.451Z,100101.28
2023-02-09T09:12:40.864Z,100112.22
2023-02-09T09:15:09.993Z,100115.00
2023-02-09T09:17:38.327Z,100110.69
2023-02-09T09:20:07.534Z,100115.38
2023-02-09T09:22:35.845Z,100123.06
2023-02-09T09:25:04.368Z,100114.28
2023-02-09T09:27:34.962Z,100123.47
2023-02-09T09:30:07.111Z,100127.94
2023-02-09T09:32:35.579Z,100122.75
2023-02-09T09:35:04.036Z,100123.72
2023-02-09T09:37:34.589Z,100127.56
2023-02-09T09:40:03.044Z,100121.06
2023-02-09T09:42:37.196Z,100137.84
2023-02-09T09:45:08.011Z,100135.91
2023-02-09T09:47:39.390Z,100133.16
2023-02-09T09:50:14.952Z,100135.84
2023-02-09T09:52:47.460Z,100140.47
2023-02-09T09:55:24.382Z,100148.28
2023-02-09T09:57:57.069Z,100138.31
2023-02-09T10:00:27.491Z,100134.50
2023-02-09T10:02:55.983Z,100156.50
2023-02-09T10:05:26.929Z,100149.91
2023-02-09T10:08:01.270Z,100153.56
2023-02-09T10:10:39.222Z,100141.28
2023-02-09T10:13:19.356Z,100139.47
2023-02-09T10:15:49.428Z,100147.34
2023-02-09T10:18:21.137Z,100126.41
2023-02-09T10:20:51.994Z,100145.44
2023-02-09T10:23:25.297Z,100150.47
2023-02-09T10:26:01.730Z,100149.00
2023-02-09T10:28:34.144Z,100141.97
2023-02-09T10:31:10.973Z,100147.81
2023-02-09T10:33:43.917Z,100141.81
2023-02-09T10:36:26.056Z,100146.81
2023-02-09T10:39:03.249Z,100142.19
2023-02-09T10:41:35.222Z,100148.31
2023-02-09T10:44:10.162Z,100148.19
2023-02-09T10:46:39.183Z,100144.25
2023-02-09T10:49:28.815Z,100141.06
2023-02-09T10:52:07.784Z,100133.97
2023-02-09T10:54:36.059Z,100136.41
2023-02-09T10:57:22.074Z,100127.00
2023-02-09T10:59:56.868Z,100118.38
2023-02-09T11:02:36.965Z,100127.38
2023-02-09T11:05:27.260Z,100131.19
2023-02-09T11:08:02.406Z,100129.81
2023-02-09T11:10:34.968Z,100115.38
2023-02-09T11:13:03.466Z,100116.22
2023-02-09T11:15:39.611Z,100113.50
2023-02-09T11:18:15.870Z,100112.22
2023-02-09T11:20:51.954Z,100101.78
2023-02-09T11:23:38.541Z,100107.06
2023-02-09T11:26:14.426Z,100087.75
2023-02-09T11:28:52.633Z,100095.75
2023-02-09T11:31:53.757Z,100088.56
2023-02-09T11:34:54.156Z,100091.38
2023-02-09T11:37:37.255Z,100082.25
2023-02-09T11:40:20.664Z,100072.00
2023-02-09T11:42:54.777Z,100065.91
2023-02-09T11:45:30.665Z,100070.00
2023-02-09T11:48:05.640Z,100071.53
2023-02-09T11:50:41.702Z,100060.59
2023-02-09T11:53:21.314Z,100066.38
2023-02-09T11:55:54.683Z,100055.69
2023-02-09T11:58:33.799Z,100058.88
2023-02-09T12:01:15.961Z,100054.38
2023-02-09T12:03:56.433Z,100055.22
2023-02-09T12:06:26.632Z,100046.31
2023-02-09T12:09:08.669Z,100050.16
2023-02-09T12:12:03.489Z,100055.72
2023-02-09T12:14:49.176Z,100051.53
2023-02-09T12:17:22.542Z,100048.66
2023-02-09T12:19:57.364Z,100040.13
2023-02-09T12:23:16.727Z,100040.22
2023-02-09T12:25:55.194Z,100046.28
2023-02-09T12:28:43.516Z,100046.63
2023-02-09T12:31:22.711Z,100040.06
2023-02-09T12:34:28.435Z,100043.41
2023-02-09T12:37:27.259Z,100031.91
2023-02-09T12:40:37.394Z,100041.03
2023-02-09T12:43:28.470Z,100040.84
2023-02-09T12:46:20.108Z,100036.59
2023-02-09T12:48:54.231Z,100036.13
2023-02-09T12:51:57.791Z,100027.78
2023-02-09T12:54:35.799Z,100029.84
2023-02-09T12:57:53.561Z,100034.91
2023-02-09T13:00:44.529Z,100028.88
2023-02-09T13:03:18.678Z,100029.19
2023-02-09T13:05:49.211Z,100038.13
2023-02-09T13:08:25.244Z,100033.50
2023-02-09T13:11:00.718Z,100035.75
2023-02-09T13:13:36.184Z,100030.59
2023-02-09T13:16:33.610Z,100030.09
2023-02-09T13:19:14.598Z,100022.53
2023-02-09T13:21:54.025Z,100024.16
2023-02-09T13:24:32.045Z,100030.13
2023-02-09T13:27:01.026Z,100022.97
2023-02-09T13:29:31.514Z,100019.84
2023-02-09T13:32:17.708Z,100016.28
2023-02-09T13:34:53.074Z,100018.53
2023-02-09T13:37:28.164Z,100014.69
2023-02-09T13:40:00.798Z,100018.38
2023-02-09T13:42:32.133Z,100021.72
2023-02-09T13:45:00.807Z,100013.78
2023-02-09T13:47:30.579Z,100017.63
2023-02-09T13:50:01.180Z,100023.09
2023-02-09T13:52:36.360Z,100025.44
2023-02-09T13:55:13.076Z,100021.75
2023-02-09T13:57:43.877Z,100015.00
2023-02-09T14:00:22.226Z,100020.56
2023-02-09T14:02:55.074Z,100025.09
2023-02-09T14:05:31.673Z,100021.72
2023-02-09T14:08:00.763Z,100009.47
2023-02-09T14:10:30.599Z,100024.25
2023-02-09T14:13:03.466Z,100014.81
2023-02-09T14:15:56.418Z,100023.91
2023-02-09T14:18:35.041Z,100036.88
2023-02-09T14:21:14.656Z,100030.66
2023-02-09T14:23:44.606Z,100031.97
2023-02-09T14:26:23.876Z,100040.91
2023-02-09T14:28:55.504Z,100034.69
2023-02-09T14:31:25.722Z,100046.59
2023-02-09T14:33:57.816Z,100050.63
2023-02-09T14:36:32.348Z,100044.84
2023-02-09T14:39:20.951Z,100052.50
2023-02-09T14:42:15.028Z,100054.34
2023-02-09T14:44:47.868Z,100061.75
2023-02-09T14:47:31.358Z,100045.44
2023-02-09T14:50:01.770Z,100060.50
2023-02-09T14:52:33.089Z,100056.53
2023-02-09T14:55:06.698Z,100060.91
2023-02-09T14:57:37.076Z,100043.53
2023-02-09T15:00:17.834Z,100054.00
2023-02-09T15:02:47.181Z,100048.25
2023-02-09T15:05:17.152Z,100054.84
2023-02-09T15:07:48.026Z,100050.28
2023-02-09T15:10:24.734Z,100062.81
2023-02-09T15:12:55.973Z,100062.75
2023-02-09T15:15:25.659Z,100057.63
2023-02-09T15:17:55.224Z,100055.38
2023-02-09T15:20:25.560Z,100058.38
2023-02-09T15:22:55.061Z,100060.69
2023-02-09T15:25:24.624Z,100069.22
2023-02-09T15:27:54.582Z,100073.72
2023-02-09T15:30:25.464Z,100069.28
2023-02-09T15:32:54.620Z,100077.13
2023-02-09T15:35:26.321Z,100067.91
2023-02-09T15:37:59.472Z,100067.59
2023-02-09T15:40:49.388Z,100075.41
2023-02-09T15:43:36.947Z,100079.00
2023-02-09T15:46:23.626Z,100071.13
2023-02-09T15:48:52.204Z,100078.25
2023-02-09T15:51:22.969Z,100077.22
2023-02-09T15:53:52.319Z,100079.19
2023-02-09T15:56:20.816Z,100083.72
2023-02-09T15:58:51.590Z,100086.00
2023-02-09T16:01:20.374Z,100076.44
2023-02-09T16:03:49.100Z,100081.31
2023-02-09T16:06:21.361Z,100089.03
2023-02-09T16:08:54.307Z,100096.72
2023-02-09T16:11:27.170Z,100095.94
2023-02-09T16:13:56.194Z,100079.50
2023-02-09T16:16:28.041Z,100074.88
2023-02-09T16:18:56.415Z,100103.22
2023-02-09T16:21:27.320Z,100085.44
2023-02-09T16:23:58.679Z,100111.00
2023-02-09T16:26:28.840Z,100107.41
2023-02-09T16:28:58.028Z,100125.63
2023-02-09T16:31:26.763Z,100118.69
2023-02-09T16:33:55.160Z,100122.19
2023-02-09T16:36:25.932Z,100127.31
2023-02-09T16:38:54.244Z,100131.03
2023-02-09T16:41:41.289Z,100131.94
2023-02-09T16:44:17.080Z,100138.72
2023-02-09T16:46:46.927Z,100137.56
2023-02-09T16:49:33.156Z,100139.91
2023-02-09T16:52:05.647Z,100134.13
2023-02-09T16:54:42.423Z,100126.75
2023-02-09T16:57:17.998Z,100144.25
2023-02-09T16:59:46.598Z,100150.84
2023-02-09T17:02:38.021Z,100149.13
2023-02-09T17:05:17.963Z,100147.38
2023-02-09T17:07:54.412Z,100153.63
2023-02-09T17:10:26.118Z,100151.94
2023-02-09T17:12:55.818Z,100146.22
2023-02-09T17:15:30.972Z,100145.94
2023-02-09T17:18:02.829Z,100150.84
2023-02-09T17:20:38.157Z,100141.53
2023-02-09T17:23:06.609Z,100144.00
2023-02-09T17:25:34.901Z,100144.13
2023-02-09T17:28:05.580Z,100151.56
2023-02-09T17:30:34.616Z,100146.78
2023-02-09T17:33:06.145Z,100145.69
2023-02-09T17:36:10.064Z,100140.03
2023-02-09T17:38:29.906Z,100139.31
2023-02-09T17:41:00.249Z,100148.47
2023-02-09T17:43:32.264Z,100124.94
2023-02-09T17:46:00.697Z,100159.03
2023-02-09T17:48:30.130Z,100142.28
2023-02-09T17:51:00.235Z,100161.09
2023-02-09T17:53:33.130Z,100151.59
2023-02-09T17:56:02.507Z,100170.13
2023-02-09T17:58:32.336Z,100147.91
2023-02-09T18:01:00.751Z,100176.59
2023-02-09T18:03:29.193Z,100178.47
2023-02-09T18:06:01.535Z,100175.06
2023-02-09T18:08:31.101Z,100184.91
2023-02-09T18:10:59.541Z,100185.78
2023-02-09T18:13:28.002Z,100188.31
2023-02-09T18:15:57.675Z,100187.78
2023-02-09T18:18:26.048Z,100196.81
2023-02-09T18:20:56.401Z,100191.44
2023-02-09T18:23:25.215Z,100179.53
2023-02-09T18:25:53.691Z,100201.81
2023-02-09T18:28:22.116Z,100202.50
2023-02-09T18:30:50.710Z,100193.19
2023-02-09T18:33:20.379Z,100208.00
2023-02-09T18:35:50.808Z,100208.72
2023-02-09T18:38:19.192Z,100215.47
2023-02-09T18:40:47.565Z,100220.53
2023-02-09T18:43:16.132Z,100214.31
2023-02-09T18:45:45.239Z,100219.47
2023-02-09T18:48:13.944Z,100218.06
2023-02-09T18:50:43.672Z,100217.59
2023-02-09T18:53:13.161Z,100225.59
2023-02-09T18:55:41.876Z,100199.22
2023-02-09T18:58:10.293Z,100233.94
2023-02-09T19:00:40.915Z,100225.94
2023-02-09T19:03:09.196Z,100233.94
2023-02-09T19:05:37.514Z,100230.63
2023-02-09T19:08:08.126Z,100234.66
2023-02-09T19:10:36.630Z,100238.53
2023-02-09T19:13:07.388Z,100240.56
2023-02-09T19:15:39.656Z,100246.56
2023-02-09T19:18:08.377Z,100253.19
2023-02-09T19:20:39.737Z,100257.44
2023-02-09T19:23:09.506Z,100263.59
2023-02-09T19:25:38.488Z,100259.84
2023-02-09T19:28:06.932Z,100248.56
2023-02-09T19:30:35.242Z,100256.22
2023-02-09T19:33:03.544Z,100258.28
2023-02-09T19:35:31.986Z,100237.09
2023-02-09T19:38:00.610Z,100268.41
2023-02-09T19:40:36.118Z,100258.41
2023-02-09T19:43:05.905Z,100273.59
2023-02-09T19:45:37.452Z,100264.41
2023-02-09T19:48:07.182Z,100269.91
2023-02-09T19:50:36.906Z,100257.59
2023-02-09T19:53:06.253Z,100267.56
2023-02-09T19:55:36.155Z,100253.38
2023-02-09T19:58:04.595Z,100263.13
2023-02-09T20:00:33.461Z,100263.53
2023-02-09T20:03:01.913Z,100270.81
2023-02-09T20:05:30.330Z,100263.69
2023-02-09T20:07:58.686Z,100268.16
2023-02-09T20:10:29.312Z,100269.72
2023-02-09T20:12:58.955Z,100273.59
2023-02-09T20:15:27.389Z,100266.59
2023-02-09T20:17:55.856Z,100284.75
2023-02-09T20:20:24.321Z,100282.34
2023-02-09T20:22:52.733Z,100266.97
2023-02-09T20:25:21.067Z,100274.38
2023-02-09T20:27:49.983Z,100276.19
2023-02-09T20:30:19.959Z,100271.91
2023-02-09T20:32:48.274Z,100277.34
2023-02-09T20:35:18.741Z,100289.97
2023-02-09T20:37:47.042Z,100296.69
2023-02-09T20:40:15.490Z,100291.31
2023-02-09T20:43:01.315Z,100285.44
2023-02-09T20:45:48.386Z,100287.09
2023-02-09T20:48:17.348Z,100309.34
2023-02-09T20:50:46.195Z,100310.50
2023-02-09T20:53:14.625Z,100297.00
2023-02-09T20:55:43.714Z,100301.03
2023-02-09T20:58:14.918Z,100301.06
2023-02-09T21:00:46.839Z,100304.06
2023-02-09T21:03:15.339Z,100304.88
2023-02-09T21:05:43.751Z,100304.59
2023-02-09T21:08:14.235Z,100294.13
2023-02-09T21:10:42.679Z,100303.91
2023-02-09T21:13:11.164Z,100306.91
2023-02-09T21:15:41.453Z,100303.06
2023-02-09T21:18:11.192Z,100310.94
2023-02-09T21:20:41.107Z,100313.00
2023-02-09T21:23:11.887Z,100316.97
2023-02-09T21:25:40.213Z,100323.91
2023-02-09T21:28:08.615Z,100318.50
2023-02-09T21:30:40.818Z,100320.88
2023-02-09T21:33:09.282Z,100325.34
2023-02-09T21:35:41.795Z,100311.81
2023-02-09T21:38:10.126Z,100325.03
2023-02-09T21:40:38.851Z,100331.78
2023-02-09T21:43:07.252Z,100329.16
2023-02-09T21:45:38.989Z,100321.72
2023-02-09T21:48:07.644Z,100329.69
2023-02-09T21:50:38.872Z,100334.53
2023-02-09T21:53:08.546Z,100347.41
2023-02-09T21:55:37.426Z,100357.00
2023-02-09T21:58:05.748Z,100352.22
2023-02-09T22:02:38.686Z,100341.69
2023-02-09T22:05:08.449Z,100353.59
2023-02-09T22:07:37.189Z,100355.13
2023-02-09T22:10:06.390Z,100357.50
2023-02-09T22:12:36.318Z,100355.09
2023-02-09T22:15:05.030Z,100336.50
2023-02-09T22:17:33.390Z,100359.19
2023-02-09T22:20:03.185Z,100369.75
2023-02-09T22:22:31.565Z,100376.06
2023-02-09T22:24:59.995Z,100376.44
2023-02-09T22:27:28.416Z,100376.53
2023-02-09T22:29:56.767Z,100332.81
2023-02-09T22:32:25.065Z,100360.63
2023-02-09T22:34:53.450Z,100367.75
2023-02-09T22:37:23.344Z,100371.34
2023-02-09T22:39:51.606Z,100379.16
2023-02-09T22:42:19.940Z,100374.53
2023-02-09T22:44:50.777Z,100376.56
2023-02-09T22:47:19.095Z,100368.78
2023-02-09T22:49:47.496Z,100366.78
2023-02-09T22:52:16.059Z,100379.91
2023-02-09T22:54:45.733Z,100383.94
2023-02-09T22:57:14.019Z,100381.69
2023-02-09T22:59:42.388Z,100385.19
2023-02-09T23:02:12.543Z,100379.69
2023-02-09T23:04:41.288Z,100382.13
2023-02-09T23:07:11.958Z,100377.47
2023-02-09T23:09:40.412Z,100381.94
2023-02-09T23:12:10.104Z,100385.47
2023-02-09T23:14:38.493Z,100383.59
2023-02-09T23:17:07.062Z,100385.50
2023-02-09T23:19:35.402Z,100397.44
2023-02-09T23:22:03.758Z,100394.72
2023-02-09T23:24:32.136Z,100383.00
2023-02-09T23:27:00.498Z,100386.00
2023-02-09T23:29:30.698Z,100383.63
2023-02-09T23:31:59.247Z,100389.72
2023-02-09T23:34:27.651Z,100393.03
2023-02-09T23:36:57.359Z,100396.66
2023-02-09T23:39:28.725Z,100386.97
2023-02-09T23:41:57.162Z,100383.88
2023-02-09T23:44:25.488Z,100387.97
2023-02-09T23:46:55.145Z,100391.84
2023-02-09T23:49:23.739Z,100366.72
2023-02-09T23:51:52.177Z,100377.53
2023-02-09T23:54:20.552Z,100366.19
2023-02-09T23:56:50.213Z,100380.50
2023-02-09T23:59:18.487Z,100394.63
